Time;durP1;ratioP1;P1;durP2;ratioP2;P2;SDS_P1;SDS_P2;PMS_P1;PMS_P2;Temp;Humidity;BMP_temperature;BMP_pressure;BME280_temperature;BME280_humidity;BME280_pressure;Samples;Min_cycle;Max_cycle;Signal;HPM_P1;HPM_P2
2023/01/17 00:01:52;;;;;;;;;;;;;;;21.47;23.59;95504.72;5057339;28;19917;-96
2023/01/17 00:09:57;;;;;;;;;;;;;;;21.51;24.03;95508.09;5059655;28;19959;-96
2023/01/17 00:12:24;;;;;;;;;;;;;;;21.99;22.83;95495.53;5059702;28;19917;-96
2023/01/17 00:14:53;;;;;;;;;;;;;;;22.45;22.23;95507.72;5056725;28;19925;-96
2023/01/17 00:17:19;;;;;;;;;;;;;;;23.00;22.30;95523.81;5051328;28;20262;-96
2023/01/17 01:34:34;;;;;;;;;;;;;;;22.40;21.29;95508.44;5055297;28;19930;-95
2023/01/17 01:37:00;;;;;;;;;;;;;;;22.85;21.61;95504.28;5045317;28;20285;-95
2023/01/17 01:39:26;;;;;;;;;;;;;;;23.18;21.65;95496.34;5055581;28;20377;-95
2023/01/17 01:41:52;;;;;;;;;;;;;;;22.93;21.57;95494.22;5055071;28;19928;-95
2023/01/17 01:44:37;;;;;;;;;;;;;;;22.24;22.43;95488.59;5053545;28;19925;-96
2023/01/17 01:47:03;;;;;;;;;;;;;;;22.68;21.98;95473.28;5047863;28;20022;-96
2023/01/17 01:49:29;;;;;;;;;;;;;;;23.44;20.82;95476.81;5052041;28;19927;-96
2023/01/17 01:51:58;;;;;;;;;;;;;;;23.29;20.61;95481.72;5047423;28;20444;-95
2023/01/17 01:54:26;;;;;;;;;;;;;;;23.22;20.79;95484.94;5048270;28;19921;-95
2023/01/17 01:56:55;;;;;;;;;;;;;;;23.33;21.06;95479.47;5048883;28;20011;-95
2023/01/17 01:59:21;;;;;;;;;;;;;;;23.74;20.51;95472.53;5052717;28;19921;-96
2023/01/17 02:01:48;;;;;;;;;;;;;;;23.31;20.63;95460.34;5066002;28;19923;-95
2023/01/17 02:04:15;;;;;;;;;;;;;;;23.14;21.30;95453.78;5050391;28;19956;-96
2023/01/17 02:06:44;;;;;;;;;;;;;;;23.06;21.24;95457.50;5050568;28;19964;-96
2023/01/17 02:09:11;;;;;;;;;;;;;;;23.01;21.17;95455.41;5043635;28;19928;-95
2023/01/17 02:11:38;;;;;;;;;;;;;;;23.27;21.38;95451.38;5055116;28;19939;-96
2023/01/17 02:14:04;;;;;;;;;;;;;;;22.96;20.85;95447.72;5053657;28;19978;-95
2023/01/17 02:16:30;;;;;;;;;;;;;;;23.19;21.62;95457.91;5051240;28;19927;-96
2023/01/17 02:18:56;;;;;;;;;;;;;;;23.34;21.01;95459.41;5048929;28;19924;-95
2023/01/17 02:21:23;;;;;;;;;;;;;;;23.64;20.94;95456.41;5051758;28;19975;-96
2023/01/17 02:23:49;;;;;;;;;;;;;;;22.58;21.52;95463.47;5049640;28;19967;-95
2023/01/17 02:26:18;;;;;;;;;;;;;;;23.06;20.78;95460.28;5056290;28;19921;-95
2023/01/17 02:28:53;;;;;;;;;;;;;;;23.49;20.81;95462.09;5071002;28;19928;-96
2023/01/17 02:31:25;;;;;;;;;;;;;;;24.04;20.37;95459.06;5060037;28;20333;-96
2023/01/17 02:34:10;;;;;;;;;;;;;;;24.34;19.87;95468.03;5051662;28;20328;-95
2023/01/17 02:36:41;;;;;;;;;;;;;;;24.41;19.73;95457.09;5061798;28;19947;-96
2023/01/17 02:39:08;;;;;;;;;;;;;;;24.28;19.61;95458.78;5053947;28;19929;-96
2023/01/17 02:41:37;;;;;;;;;;;;;;;23.93;20.64;95461.78;5054716;28;20403;-96
2023/01/17 02:44:03;;;;;;;;;;;;;;;23.92;19.85;95465.84;5043515;28;20308;-96
2023/01/17 02:46:30;;;;;;;;;;;;;;;23.90;20.47;95471.94;5045640;28;20277;-95
2023/01/17 02:48:56;;;;;;;;;;;;;;;23.79;20.32;95479.47;5049981;28;20404;-95
2023/01/17 02:51:41;;;;;;;;;;;;;;;23.52;20.58;95480.75;5049112;28;19940;-96
2023/01/17 02:54:36;;;;;;;;;;;;;;;23.55;20.61;95479.72;5049350;28;20296;-96
2023/01/17 02:57:13;;;;;;;;;;;;;;;23.34;20.18;95472.59;5032589;28;19928;-96
2023/01/17 02:59:55;;;;;;;;;;;;;;;23.42;20.23;95467.38;5053668;28;19924;-95
2023/01/17 03:02:26;;;;;;;;;;;;;;;23.57;20.26;95482.06;5040151;28;19953;-96
2023/01/17 03:05:00;;;;;;;;;;;;;;;23.66;19.76;95479.88;5050740;28;19920;-94
2023/01/17 03:07:26;;;;;;;;;;;;;;;23.54;20.53;95485.84;5046011;28;19925;-96
2023/01/17 03:10:00;;;;;;;;;;;;;;;23.14;20.31;95487.38;5054814;28;19924;-96
2023/01/17 03:12:27;;;;;;;;;;;;;;;23.28;20.04;95500.53;5055005;28;20023;-95
2023/01/17 03:14:53;;;;;;;;;;;;;;;22.74;20.43;95503.34;5055532;28;19925;-96
2023/01/17 03:17:19;;;;;;;;;;;;;;;23.14;20.02;95503.41;5045472;28;20277;-96
2023/01/17 03:19:45;;;;;;;;;;;;;;;23.21;20.14;95511.38;5047373;28;20078;-95
2023/01/17 03:22:11;;;;;;;;;;;;;;;23.59;19.58;95511.13;5054429;28;20389;-95
2023/01/17 03:24:37;;;;;;;;;;;;;;;23.58;19.71;95509.56;5042388;28;20011;-96
2023/01/17 03:27:03;;;;;;;;;;;;;;;23.26;19.95;95519.09;5053957;28;19952;-96
2023/01/17 03:29:30;;;;;;;;;;;;;;;23.21;20.06;95523.34;5056167;28;20004;-96
2023/01/17 03:31:56;;;;;;;;;;;;;;;22.78;20.38;95517.94;5054247;28;20196;-95
2023/01/17 03:34:22;;;;;;;;;;;;;;;22.84;20.13;95516.75;5060624;28;20377;-96
2023/01/17 03:36:48;;;;;;;;;;;;;;;22.84;20.36;95511.16;5051020;28;20304;-96
2023/01/17 03:39:14;;;;;;;;;;;;;;;23.10;20.08;95514.03;5055793;28;19957;-96
2023/01/17 03:41:40;;;;;;;;;;;;;;;23.30;19.79;95512.00;5057665;28;19987;-96
2023/01/17 03:44:06;;;;;;;;;;;;;;;23.42;19.66;95515.75;5056986;28;20043;-96
2023/01/17 03:46:32;;;;;;;;;;;;;;;23.39;19.46;95516.72;5060011;28;19956;-95
2023/01/17 03:48:58;;;;;;;;;;;;;;;23.16;19.64;95528.88;5059618;28;19975;-95
2023/01/17 03:51:24;;;;;;;;;;;;;;;23.03;19.94;95523.63;5060657;28;20446;-96
2023/01/17 03:53:50;;;;;;;;;;;;;;;22.84;19.84;95522.34;5055097;28;19923;-96
2023/01/17 03:56:16;;;;;;;;;;;;;;;22.96;19.95;95529.63;5068705;28;19948;-95
2023/01/17 03:58:43;;;;;;;;;;;;;;;23.17;19.86;95528.41;5069420;28;19905;-96
2023/01/17 04:01:09;;;;;;;;;;;;;;;22.45;20.12;95530.09;5056107;28;19928;-96
2023/01/17 04:03:35;;;;;;;;;;;;;;;22.22;20.34;95531.00;5058371;28;19921;-96
2023/01/17 04:06:01;;;;;;;;;;;;;;;22.12;20.67;95537.19;5060222;28;19924;-96
2023/01/17 04:08:27;;;;;;;;;;;;;;;22.03;20.48;95532.47;5055548;28;19974;-95
2023/01/17 04:10:53;;;;;;;;;;;;;;;21.97;20.63;95537.16;5056431;28;19951;-95
2023/01/17 04:13:19;;;;;;;;;;;;;;;22.32;20.62;95531.66;5054424;28;19925;-95
2023/01/17 04:15:47;;;;;;;;;;;;;;;22.61;20.09;95526.81;5056329;28;19921;-95
2023/01/17 04:18:15;;;;;;;;;;;;;;;22.73;20.36;95533.38;5049505;28;19922;-95
2023/01/17 04:20:41;;;;;;;;;;;;;;;23.02;19.44;95536.06;5054068;28;19978;-94
2023/01/17 04:23:07;;;;;;;;;;;;;;;23.11;18.86;95533.13;5057217;28;19917;-94
2023/01/17 04:25:33;;;;;;;;;;;;;;;22.54;19.92;95535.56;5056504;28;19917;-94
2023/01/17 04:28:00;;;;;;;;;;;;;;;22.66;19.74;95533.78;5052990;28;20273;-94
2023/01/17 04:30:27;;;;;;;;;;;;;;;22.31;20.13;95524.53;5043061;28;19932;-94
2023/01/17 04:32:53;;;;;;;;;;;;;;;22.43;20.67;95523.44;5066366;28;19921;-94
2023/01/17 04:35:19;;;;;;;;;;;;;;;22.74;19.97;95522.94;5066288;28;19932;-94
2023/01/17 04:37:45;;;;;;;;;;;;;;;22.88;20.02;95514.50;5051430;28;20012;-94
2023/01/17 04:40:11;;;;;;;;;;;;;;;22.38;19.90;95515.75;5042661;28;19970;-94
2023/01/17 04:42:37;;;;;;;;;;;;;;;22.14;20.74;95515.09;5050707;28;19944;-93
2023/01/17 04:45:03;;;;;;;;;;;;;;;22.47;19.98;95524.81;5037064;28;20400;-93
2023/01/17 04:47:29;;;;;;;;;;;;;;;22.64;20.02;95533.47;5053029;28;19921;-93
2023/01/17 04:49:55;;;;;;;;;;;;;;;22.38;20.24;95536.09;5048469;28;19921;-96
2023/01/17 04:52:21;;;;;;;;;;;;;;;21.81;20.78;95529.22;5055746;28;19959;-96
2023/01/17 04:54:48;;;;;;;;;;;;;;;21.54;21.77;95529.47;5058415;28;19921;-95
2023/01/17 04:57:15;;;;;;;;;;;;;;;21.65;21.60;95535.28;5056943;28;20011;-95
2023/01/17 04:59:41;;;;;;;;;;;;;;;21.73;21.40;95528.03;5056771;28;20402;-95
2023/01/17 05:02:07;;;;;;;;;;;;;;;21.66;21.60;95534.00;5056072;28;19921;-96
2023/01/17 05:04:33;;;;;;;;;;;;;;;21.51;21.75;95530.44;5051643;28;19968;-95
2023/01/17 05:07:00;;;;;;;;;;;;;;;22.16;21.17;95535.72;5056541;28;19925;-95
2023/01/17 05:09:25;;;;;;;;;;;;;;;22.28;21.16;95534.66;5057931;28;20389;-95
2023/01/17 05:11:51;;;;;;;;;;;;;;;22.75;20.51;95544.06;5060941;28;19928;-96
2023/01/17 05:14:17;;;;;;;;;;;;;;;23.05;20.62;95540.69;5056385;28;19932;-96
2023/01/17 05:16:44;;;;;;;;;;;;;;;23.48;20.54;95541.03;5049393;28;20304;-95
2023/01/17 05:19:10;;;;;;;;;;;;;;;23.88;20.06;95541.72;5054951;28;20296;-96
2023/01/17 05:21:36;;;;;;;;;;;;;;;23.95;20.05;95532.09;5050271;28;19927;-96
2023/01/17 05:24:02;;;;;;;;;;;;;;;24.17;19.62;95521.16;5049400;28;19933;-90
2023/01/17 05:26:28;;;;;;;;;;;;;;;24.01;19.10;95524.53;5049614;28;19928;-96
2023/01/17 05:28:54;;;;;;;;;;;;;;;24.01;19.78;95528.09;5056935;28;19966;-96
2023/01/17 05:31:20;;;;;;;;;;;;;;;24.19;19.69;95524.22;5064156;28;19920;-96
2023/01/17 05:33:46;;;;;;;;;;;;;;;24.43;19.64;95527.50;5062031;28;19924;-96
2023/01/17 05:36:12;;;;;;;;;;;;;;;24.36;19.13;95524.38;5059511;28;19924;-96
2023/01/17 05:38:38;;;;;;;;;;;;;;;23.62;20.16;95517.78;5067124;28;19943;-90
2023/01/17 05:41:04;;;;;;;;;;;;;;;23.28;20.84;95514.53;5053057;28;19983;-96
2023/01/17 05:43:30;;;;;;;;;;;;;;;23.55;20.10;95501.38;5045926;28;19968;-95
2023/01/17 05:45:56;;;;;;;;;;;;;;;23.63;19.99;95500.47;5048430;28;19932;-96
2023/01/17 05:48:22;;;;;;;;;;;;;;;23.73;19.97;95501.84;5049613;28;19920;-93
2023/01/17 05:50:48;;;;;;;;;;;;;;;23.80;20.15;95509.81;5049306;28;20134;-89
2023/01/17 05:53:15;;;;;;;;;;;;;;;23.87;20.01;95531.03;5056128;28;19924;-86
2023/01/17 05:55:41;;;;;;;;;;;;;;;24.11;19.57;95525.19;5046596;28;19928;-95
2023/01/17 05:58:11;;;;;;;;;;;;;;;24.23;19.52;95519.16;5048519;28;19921;-88
2023/01/17 06:00:37;;;;;;;;;;;;;;;23.93;19.56;95535.41;5055034;28;19924;-91
2023/01/17 06:03:03;;;;;;;;;;;;;;;23.85;20.39;95531.50;5054049;28;19948;-92
2023/01/17 06:05:30;;;;;;;;;;;;;;;24.01;20.29;95536.50;5055784;28;20348;-92
2023/01/17 06:07:56;;;;;;;;;;;;;;;24.05;19.31;95536.28;5055391;28;20019;-92
2023/01/17 06:10:23;;;;;;;;;;;;;;;23.80;20.34;95528.66;5054855;28;20294;-91
2023/01/17 06:12:49;;;;;;;;;;;;;;;23.91;20.17;95535.16;5055563;28;20365;-92
2023/01/17 06:15:16;;;;;;;;;;;;;;;23.85;19.72;95531.50;5053816;28;19928;-92
2023/01/17 06:17:42;;;;;;;;;;;;;;;23.42;19.97;95528.97;5070087;28;19924;-92
2023/01/17 06:20:09;;;;;;;;;;;;;;;23.46;20.28;95529.53;5058106;28;20380;-92
2023/01/17 06:22:35;;;;;;;;;;;;;;;23.66;19.78;95530.28;5056255;28;19924;-92
2023/01/17 06:25:01;;;;;;;;;;;;;;;23.99;20.22;95533.44;5056176;28;19917;-92
2023/01/17 06:27:27;;;;;;;;;;;;;;;24.21;19.76;95529.31;5056298;28;20296;-91
2023/01/17 06:29:53;;;;;;;;;;;;;;;24.38;19.63;95527.44;5056035;28;20275;-92
2023/01/17 06:32:19;;;;;;;;;;;;;;;24.01;19.50;95530.91;5055507;28;19917;-92
2023/01/17 06:34:45;;;;;;;;;;;;;;;23.34;20.09;95528.59;5055674;28;19916;-92
2023/01/17 06:37:11;;;;;;;;;;;;;;;22.28;21.55;95533.88;5053979;28;19948;-93
2023/01/17 06:39:37;;;;;;;;;;;;;;;21.01;22.95;95524.56;5051216;28;19932;-91
2023/01/17 06:42:03;;;;;;;;;;;;;;;20.67;23.66;95541.81;5055929;28;19917;-91
2023/01/17 06:44:29;;;;;;;;;;;;;;;21.76;22.57;95535.47;5056791;28;20336;-91
2023/01/17 06:46:55;;;;;;;;;;;;;;;22.51;21.54;95536.56;5035762;28;19963;-92
2023/01/17 06:49:21;;;;;;;;;;;;;;;22.53;21.22;95536.84;5036135;28;19921;-92
2023/01/17 06:51:48;;;;;;;;;;;;;;;22.38;21.79;95541.66;5067298;28;20415;-93
2023/01/17 06:54:14;;;;;;;;;;;;;;;21.85;22.23;95533.41;5055863;28;20346;-92
2023/01/17 06:56:40;;;;;;;;;;;;;;;22.79;21.66;95539.03;5054512;28;20396;-92
2023/01/17 06:59:06;;;;;;;;;;;;;;;23.19;21.39;95542.66;5055420;28;19917;-91
2023/01/17 07:01:32;;;;;;;;;;;;;;;23.78;20.69;95536.78;5039307;28;19920;-91
2023/01/17 07:03:58;;;;;;;;;;;;;;;24.27;20.58;95539.31;5035616;28;20332;-91
2023/01/17 07:06:27;;;;;;;;;;;;;;;24.52;20.40;95543.38;5035087;28;19921;-91
2023/01/17 07:08:54;;;;;;;;;;;;;;;24.53;20.18;95537.25;5053192;28;19913;-91
2023/01/17 07:11:20;;;;;;;;;;;;;;;24.51;19.48;95534.19;5055721;28;19923;-91
2023/01/17 07:13:46;;;;;;;;;;;;;;;24.26;20.12;95540.59;5057685;28;19924;-91
2023/01/17 07:16:13;;;;;;;;;;;;;;;24.37;20.23;95545.53;5055231;28;19967;-91
2023/01/17 07:18:39;;;;;;;;;;;;;;;24.52;19.94;95546.94;5050700;28;19985;-92
2023/01/17 07:21:10;;;;;;;;;;;;;;;24.78;19.80;95546.94;5054229;28;19913;-92
2023/01/17 07:23:36;;;;;;;;;;;;;;;24.96;20.20;95546.53;5055208;28;20003;-91
2023/01/17 07:26:03;;;;;;;;;;;;;;;25.12;20.14;95548.66;5055140;28;20380;-92
2023/01/17 07:28:29;;;;;;;;;;;;;;;25.22;19.98;95552.03;5054959;28;19996;-92
2023/01/17 07:30:56;;;;;;;;;;;;;;;25.26;19.97;95558.97;5055158;28;19920;-91
2023/01/17 07:33:22;;;;;;;;;;;;;;;25.31;19.36;95552.59;5054646;28;19917;-92
2023/01/17 07:35:48;;;;;;;;;;;;;;;25.19;19.31;95558.66;5054704;28;20438;-91
2023/01/17 07:38:15;;;;;;;;;;;;;;;24.24;20.18;95559.97;5048877;28;19924;-91
2023/01/17 07:40:41;;;;;;;;;;;;;;;23.69;20.66;95568.50;5053425;28;20410;-91
2023/01/17 07:43:12;;;;;;;;;;;;;;;23.37;21.04;95572.44;5069126;28;19924;-92
2023/01/17 07:45:43;;;;;;;;;;;;;;;23.54;21.23;95570.63;5055082;28;19917;-92
2023/01/17 07:48:09;;;;;;;;;;;;;;;24.07;20.89;95559.03;5054451;28;19916;-91
2023/01/17 07:50:35;;;;;;;;;;;;;;;24.46;20.49;95584.63;5054551;28;19924;-92
2023/01/17 07:53:02;;;;;;;;;;;;;;;24.77;20.11;95575.47;5054583;28;19923;-91
2023/01/17 07:55:28;;;;;;;;;;;;;;;24.99;20.05;95576.41;5054330;28;19971;-91
2023/01/17 07:57:54;;;;;;;;;;;;;;;25.03;19.83;95581.78;5054741;28;19924;-91
2023/01/17 08:00:21;;;;;;;;;;;;;;;24.48;20.12;95582.84;5039542;28;19925;-91
2023/01/17 08:02:48;;;;;;;;;;;;;;;24.14;21.10;95581.00;5054310;28;19962;-91
2023/01/17 08:05:16;;;;;;;;;;;;;;;24.41;20.61;95582.56;5054755;28;19917;-91
2023/01/17 08:07:42;;;;;;;;;;;;;;;24.07;20.49;95591.88;5054050;28;19917;-91
2023/01/17 08:10:11;;;;;;;;;;;;;;;23.55;21.18;95594.56;5053915;28;19920;-91
2023/01/17 08:12:37;;;;;;;;;;;;;;;23.70;21.28;95600.09;5054003;28;19917;-91
2023/01/17 08:15:04;;;;;;;;;;;;;;;24.15;21.72;95599.38;5038576;28;19932;-91
2023/01/17 08:17:30;;;;;;;;;;;;;;;24.64;20.83;95598.31;5053814;28;19917;-91
2023/01/17 08:19:56;;;;;;;;;;;;;;;25.00;20.41;95600.41;5053934;28;19921;-91
2023/01/17 08:22:22;;;;;;;;;;;;;;;24.93;19.85;95608.50;5054139;28;19917;-91
2023/01/17 08:24:48;;;;;;;;;;;;;;;23.74;21.50;95614.66;5069643;28;19924;-91
2023/01/17 08:27:14;;;;;;;;;;;;;;;24.13;21.66;95612.34;5054304;28;20283;-91
2023/01/17 08:29:45;;;;;;;;;;;;;;;24.66;21.11;95612.63;5054146;28;19996;-92
2023/01/17 08:32:11;;;;;;;;;;;;;;;24.81;20.83;95610.47;5054475;28;19950;-91
2023/01/17 08:34:37;;;;;;;;;;;;;;;24.55;21.43;95613.25;5053702;28;20391;-92
2023/01/17 08:37:03;;;;;;;;;;;;;;;24.82;21.36;95619.66;5053955;28;20007;-90
2023/01/17 08:39:29;;;;;;;;;;;;;;;24.93;21.24;95619.72;5053671;28;20000;-90
2023/01/17 08:41:56;;;;;;;;;;;;;;;25.29;21.01;95616.94;5062778;28;19947;-90
2023/01/17 08:44:22;;;;;;;;;;;;;;;25.48;20.37;95633.44;5048322;28;20365;-90
2023/01/17 08:46:48;;;;;;;;;;;;;;;25.15;21.18;95631.91;5048532;28;20335;-90
2023/01/17 08:49:14;;;;;;;;;;;;;;;25.03;20.88;95624.69;5055462;28;19920;-89
2023/01/17 08:51:40;;;;;;;;;;;;;;;24.94;20.63;95633.28;5067763;28;19956;-89
2023/01/17 08:54:08;;;;;;;;;;;;;;;24.86;20.84;95628.59;5052458;28;20438;-89
2023/01/17 08:56:34;;;;;;;;;;;;;;;24.92;21.09;95638.63;5053701;28;19924;-89
2023/01/17 08:59:01;;;;;;;;;;;;;;;24.60;21.28;95642.63;5053492;28;19920;-89
2023/01/17 09:01:27;;;;;;;;;;;;;;;24.38;21.98;95642.44;5053026;28;19921;-89
2023/01/17 09:03:53;;;;;;;;;;;;;;;24.51;21.15;95646.38;5053353;28;20011;-89
2023/01/17 09:06:20;;;;;;;;;;;;;;;24.35;21.06;95649.03;5057435;28;19948;-89
2023/01/17 09:08:46;;;;;;;;;;;;;;;24.61;21.21;95647.00;5066851;28;19923;-89
2023/01/17 09:11:14;;;;;;;;;;;;;;;24.96;21.38;95639.16;5053438;28;19943;-89
2023/01/17 09:13:40;;;;;;;;;;;;;;;25.25;21.33;95641.66;5053305;28;19979;-88
2023/01/17 09:16:06;;;;;;;;;;;;;;;25.27;21.95;95644.00;5053362;28;20012;-89
2023/01/17 09:18:33;;;;;;;;;;;;;;;25.35;21.64;95645.81;5053407;28;19917;-89
2023/01/17 09:21:07;;;;;;;;;;;;;;;25.73;20.72;95646.59;5052585;28;19917;-89
2023/01/17 09:23:33;;;;;;;;;;;;;;;25.94;20.32;95648.72;5053678;28;19948;-88
2023/01/17 09:25:59;;;;;;;;;;;;;;;26.31;20.34;95661.91;5053047;28;20379;-89
2023/01/17 09:28:26;;;;;;;;;;;;;;;26.63;21.10;95664.03;5046003;28;20003;-88
2023/01/17 09:30:52;;;;;;;;;;;;;;;26.87;20.11;95660.00;5033378;28;19917;-89
2023/01/17 09:33:18;;;;;;;;;;;;;;;26.86;20.40;95655.66;5033435;28;20023;-89
2023/01/17 09:35:45;;;;;;;;;;;;;;;26.89;19.80;95665.88;5033525;28;20362;-89
2023/01/17 09:38:12;;;;;;;;;;;;;;;26.37;21.03;95663.47;5051211;28;19953;-88
2023/01/17 09:40:42;;;;;;;;;;;;;;;25.90;21.52;95658.69;5053454;28;19917;-89
2023/01/17 09:43:22;;;;;;;;;;;;;;;25.42;22.61;95656.59;5052660;28;19924;-88
2023/01/17 09:45:48;;;;;;;;;;;;;;;25.00;22.68;95655.78;5052843;28;19917;-89
2023/01/17 09:48:20;;;;;;;;;;;;;;;25.49;22.30;95655.38;5053372;28;20019;-88
2023/01/17 09:50:51;;;;;;;;;;;;;;;26.38;22.19;95656.56;5052397;28;20428;-89
2023/01/17 09:53:20;;;;;;;;;;;;;;;26.25;21.53;95653.47;5055174;28;19917;-88
2023/01/17 09:55:57;;;;;;;;;;;;;;;26.44;21.19;95654.53;5055283;28;20273;-89
2023/01/17 09:58:26;;;;;;;;;;;;;;;26.77;22.45;95650.28;5061388;28;20330;-88
2023/01/17 10:01:11;;;;;;;;;;;;;;;26.98;21.10;95652.31;5048204;28;19913;-88
2023/01/17 10:03:41;;;;;;;;;;;;;;;26.71;21.51;95648.19;5036600;28;19971;-89
2023/01/17 10:06:13;;;;;;;;;;;;;;;26.82;21.57;95646.69;5036630;28;20011;-89
2023/01/17 10:08:42;;;;;;;;;;;;;;;27.03;21.79;95651.56;5036617;28;19917;-89
2023/01/17 10:11:16;;;;;;;;;;;;;;;27.42;21.03;95650.81;5045822;28;19917;-89
2023/01/17 10:13:49;;;;;;;;;;;;;;;27.86;21.34;95656.34;5055763;28;20288;-88
2023/01/17 10:16:25;;;;;;;;;;;;;;;28.12;20.57;95661.66;5055848;28;19927;-89
2023/01/17 10:18:51;;;;;;;;;;;;;;;28.14;20.18;95661.91;5055932;28;19999;-89
2023/01/17 10:21:43;;;;;;;;;;;;;;;28.17;20.34;95655.97;5056111;28;20004;-89
2023/01/17 10:24:15;;;;;;;;;;;;;;;27.55;20.28;95654.63;5056377;28;19917;-89
2023/01/17 10:26:47;;;;;;;;;;;;;;;27.09;20.59;95652.34;5056020;28;20316;-89
2023/01/17 10:29:15;;;;;;;;;;;;;;;27.12;20.05;95645.66;5055935;28;19916;-89
2023/01/17 10:31:50;;;;;;;;;;;;;;;27.50;20.25;95661.03;5062573;28;19917;-89
2023/01/17 10:34:18;;;;;;;;;;;;;;;27.33;19.79;95663.06;5064974;28;19917;-89
2023/01/17 10:36:47;;;;;;;;;;;;;;;27.36;20.42;95662.03;5055790;28;19917;-89
2023/01/17 10:39:21;;;;;;;;;;;;;;;26.96;20.41;95660.53;5055780;28;19928;-89
2023/01/17 10:41:57;;;;;;;;;;;;;;;26.63;20.45;95657.63;5047519;28;20020;-89
2023/01/17 10:44:23;;;;;;;;;;;;;;;26.24;20.88;95666.00;5038361;28;19932;-89
2023/01/17 10:46:52;;;;;;;;;;;;;;;26.54;20.90;95671.94;5055875;28;19920;-89
2023/01/17 10:49:20;;;;;;;;;;;;;;;27.15;20.51;95675.63;5054604;28;19916;-89
2023/01/17 10:51:50;;;;;;;;;;;;;;;26.29;20.63;95681.34;5055691;28;19917;-89
2023/01/17 10:54:22;;;;;;;;;;;;;;;26.42;20.63;95685.22;5055795;28;20283;-89
2023/01/17 10:56:48;;;;;;;;;;;;;;;26.33;19.78;95687.50;5049226;28;19917;-88
2023/01/17 10:59:26;;;;;;;;;;;;;;;27.01;20.17;95693.56;5035633;28;19917;-89
2023/01/17 11:01:52;;;;;;;;;;;;;;;26.80;20.79;95691.47;5041804;28;19913;-88
2023/01/17 11:04:28;;;;;;;;;;;;;;;26.80;19.98;95689.44;5055586;28;19963;-88
2023/01/17 11:07:33;;;;;;;;;;;;;;;25.54;20.82;95681.97;5072205;28;19919;-89
2023/01/17 11:09:59;;;;;;;;;;;;;;;26.32;19.47;95685.97;5013658;28;20334;-88
2023/01/17 11:12:27;;;;;;;;;;;;;;;26.15;21.18;95680.28;4996952;28;19972;-88
2023/01/17 11:15:16;;;;;;;;;;;;;;;25.79;20.04;95686.75;5016258;28;19925;-89
2023/01/17 11:17:42;;;;;;;;;;;;;;;26.59;19.75;95690.91;5035382;28;20332;-89
2023/01/17 11:20:11;;;;;;;;;;;;;;;26.76;19.92;95680.47;5052896;28;19916;-89
2023/01/17 11:22:37;;;;;;;;;;;;;;;26.35;19.48;95682.16;5055348;28;19921;-89
2023/01/17 11:25:03;;;;;;;;;;;;;;;26.11;19.72;95679.00;5055132;28;19917;-89
2023/01/17 11:27:32;;;;;;;;;;;;;;;26.53;19.90;95679.66;5054940;28;19917;-89
2023/01/17 11:30:15;;;;;;;;;;;;;;;27.08;19.63;95672.56;5055007;28;19916;-89
2023/01/17 11:32:51;;;;;;;;;;;;;;;26.62;19.75;95676.59;5054642;28;19924;-89
2023/01/17 11:35:19;;;;;;;;;;;;;;;24.75;21.24;95671.38;5054819;28;20407;-90
2023/01/17 11:37:50;;;;;;;;;;;;;;;23.93;22.37;95683.19;5053671;28;20336;-89
2023/01/17 11:40:22;;;;;;;;;;;;;;;23.94;23.38;95687.53;5065626;28;20288;-89
2023/01/17 11:42:58;;;;;;;;;;;;;;;24.68;23.12;95671.81;5049360;28;20006;-90
2023/01/17 11:45:27;;;;;;;;;;;;;;;25.68;20.95;95669.81;5034441;28;19922;-90
2023/01/17 11:48:04;;;;;;;;;;;;;;;26.06;20.19;95666.41;5037373;28;19924;-89
2023/01/17 11:50:30;;;;;;;;;;;;;;;26.67;20.13;95667.41;5054638;28;20025;-89
2023/01/17 11:53:13;;;;;;;;;;;;;;;27.11;19.49;95663.09;5054319;28;19917;-89
2023/01/17 11:55:45;;;;;;;;;;;;;;;27.19;19.69;95656.41;5054034;28;19924;-89
2023/01/17 11:58:13;;;;;;;;;;;;;;;27.67;18.91;95661.00;5055062;28;19917;-90
2023/01/17 12:00:44;;;;;;;;;;;;;;;27.01;19.83;95653.34;5054486;28;20295;-89
2023/01/17 12:03:18;;;;;;;;;;;;;;;27.37;19.28;95647.50;5054263;28;19962;-90
2023/01/17 12:05:52;;;;;;;;;;;;;;;26.11;20.94;95646.03;5054296;28;19966;-90
2023/01/17 12:08:37;;;;;;;;;;;;;;;26.57;20.00;95646.38;5053385;28;19917;-90
2023/01/17 12:11:18;;;;;;;;;;;;;;;26.38;20.00;95639.69;5053828;28;20400;-89
2023/01/17 12:14:02;;;;;;;;;;;;;;;26.81;20.14;95633.91;5059415;28;19927;-89
2023/01/17 12:16:29;;;;;;;;;;;;;;;27.02;19.90;95641.59;5061036;28;19921;-89
2023/01/17 12:19:05;;;;;;;;;;;;;;;26.44;19.73;95643.28;5054065;28;19917;-89
2023/01/17 12:21:34;;;;;;;;;;;;;;;26.98;19.81;95638.25;5054003;28;19917;-89
2023/01/17 12:24:18;;;;;;;;;;;;;;;26.89;19.88;95637.72;5053683;28;20015;-90
2023/01/17 12:26:53;;;;;;;;;;;;;;;27.06;20.43;95641.31;5048413;28;20451;-89
2023/01/17 12:29:19;;;;;;;;;;;;;;;25.92;19.91;95637.22;5054091;28;19921;-90
2023/01/17 12:32:08;;;;;;;;;;;;;;;25.06;21.26;95651.75;5069722;28;20275;-90
2023/01/17 12:34:45;;;;;;;;;;;;;;;26.34;20.47;95652.47;5054012;28;20372;-90
2023/01/17 12:37:15;;;;;;;;;;;;;;;26.79;19.79;95650.53;5054096;28;19917;-89
2023/01/17 12:39:45;;;;;;;;;;;;;;;26.68;19.72;95645.63;5053818;28;19917;-90
2023/01/17 12:42:13;;;;;;;;;;;;;;;26.86;19.77;95639.53;5042293;28;19917;-89
2023/01/17 12:44:46;;;;;;;;;;;;;;;27.29;19.37;95643.63;5047122;28;19944;-89
2023/01/17 12:47:14;;;;;;;;;;;;;;;26.81;20.54;95643.13;5054212;28;19920;-89
2023/01/17 12:49:44;;;;;;;;;;;;;;;27.40;19.24;95648.47;5053689;28;19924;-89
2023/01/17 12:52:10;;;;;;;;;;;;;;;27.47;19.40;95656.41;5054032;28;19917;-90
2023/01/17 12:54:41;;;;;;;;;;;;;;;26.44;19.48;95654.53;5053479;28;19923;-89
2023/01/17 12:57:17;;;;;;;;;;;;;;;25.89;20.34;95662.75;5053711;28;19924;-89
2023/01/17 12:59:49;;;;;;;;;;;;;;;26.17;19.28;95662.91;5053926;28;20365;-90
2023/01/17 13:02:23;;;;;;;;;;;;;;;26.56;19.90;95660.94;5053607;28;19917;-91
2023/01/17 13:04:55;;;;;;;;;;;;;;;26.63;19.16;95661.22;5054200;28;19916;-91
2023/01/17 13:07:27;;;;;;;;;;;;;;;26.61;19.82;95663.00;5053346;28;19982;-90
2023/01/17 13:09:58;;;;;;;;;;;;;;;26.99;19.03;95667.19;5053708;28;19917;-90
2023/01/17 13:12:27;;;;;;;;;;;;;;;26.65;19.61;95684.00;5053960;28;19923;-90
2023/01/17 13:14:53;;;;;;;;;;;;;;;26.83;19.40;95679.22;5052641;28;20367;-90
2023/01/17 13:17:31;;;;;;;;;;;;;;;26.87;19.18;95685.34;5053142;28;20392;-91
2023/01/17 13:20:10;;;;;;;;;;;;;;;26.83;19.07;95684.84;5053481;28;19916;-91
2023/01/17 13:22:37;;;;;;;;;;;;;;;26.90;19.18;95687.94;5053735;28;19975;-90
2023/01/17 13:25:24;;;;;;;;;;;;;;;26.92;18.87;95687.41;5053778;28;19916;-90
2023/01/17 13:28:02;;;;;;;;;;;;;;;26.66;19.36;95698.84;5054335;28;20385;-90
2023/01/17 13:30:42;;;;;;;;;;;;;;;26.88;19.04;95701.75;5056277;28;20015;-90
2023/01/17 13:33:14;;;;;;;;;;;;;;;26.98;19.06;95702.28;5057393;28;20369;-90
2023/01/17 13:35:58;;;;;;;;;;;;;;;26.49;19.33;95703.69;5057035;28;20012;-90
2023/01/17 13:38:53;;;;;;;;;;;;;;;26.84;19.39;95706.84;5057781;28;19917;-91
2023/01/17 13:41:42;;;;;;;;;;;;;;;27.03;18.72;95702.25;4998457;28;19925;-92
2023/01/17 13:44:23;;;;;;;;;;;;;;;26.56;18.45;95718.00;5041614;28;19925;-91
2023/01/17 13:46:54;;;;;;;;;;;;;;;27.19;19.01;95714.84;5057007;28;20001;-92
2023/01/17 13:49:32;;;;;;;;;;;;;;;27.13;18.82;95716.88;5056912;28;19917;-90
2023/01/17 13:52:01;;;;;;;;;;;;;;;27.14;18.60;95724.78;5056520;28;19917;-91
2023/01/17 13:54:31;;;;;;;;;;;;;;;27.30;18.13;95732.50;5056242;28;20331;-91
2023/01/17 13:57:16;;;;;;;;;;;;;;;27.36;17.91;95740.94;5056918;28;19924;-91
2023/01/17 13:59:42;;;;;;;;;;;;;;;27.02;18.38;95748.63;5056960;28;20326;-90
2023/01/17 14:02:35;;;;;;;;;;;;;;;27.18;17.89;95753.50;5056794;28;19916;-91
2023/01/17 14:05:04;;;;;;;;;;;;;;;27.18;18.29;95744.28;5056243;28;20028;-91
2023/01/17 14:07:31;;;;;;;;;;;;;;;27.40;18.41;95747.91;5056387;28;19924;-90
2023/01/17 14:09:57;;;;;;;;;;;;;;;27.56;17.89;95745.59;5056646;28;19921;-91
2023/01/17 14:12:24;;;;;;;;;;;;;;;27.72;17.69;95754.03;5056815;28;19921;-91
2023/01/17 14:14:54;;;;;;;;;;;;;;;27.61;18.22;95754.03;5056129;28;19924;-90
2023/01/17 14:17:24;;;;;;;;;;;;;;;27.58;18.02;95746.63;5056256;28;19948;-91
2023/01/17 14:19:55;;;;;;;;;;;;;;;27.49;17.69;95751.75;5051662;28;20282;-84